Time;durP1;ratioP1;P1;durP2;ratioP2;P2;SDS_P1;SDS_P2;PMS_P1;PMS_P2;Temp;Humidity;BMP_temperature;BMP_pressure;BME280_temperature;BME280_humidity;BME280_pressure;Samples;Min_cycle;Max_cycle;Signal;HPM_P1;HPM_P2
2022/11/12 00:00:40;;;;;;;9.77;8.02;;;7.80;99.90;;;;;;5042389;28;20029;-40
2022/11/12 00:03:06;;;;;;;11.18;8.52;;;7.80;99.90;;;;;;5042930;28;20025;-38
2022/11/12 00:05:32;;;;;;;12.50;8.43;;;7.80;99.90;;;;;;5040218;28;20025;-39
2022/11/12 00:07:57;;;;;;;14.38;8.52;;;7.80;99.90;;;;;;5042089;28;20075;-40
2022/11/12 00:10:23;;;;;;;11.10;8.43;;;7.80;99.90;;;;;;5042640;28;20033;-40
2022/11/12 00:12:49;;;;;;;11.35;8.90;;;7.80;99.90;;;;;;5046672;28;20036;-41
2022/11/12 00:15:14;;;;;;;12.05;9.00;;;7.80;99.90;;;;;;5045813;28;20025;-40
2022/11/12 00:17:40;;;;;;;9.80;8.77;;;7.70;99.90;;;;;;5046748;28;20025;-41
2022/11/12 00:20:06;;;;;;;11.10;8.55;;;7.70;99.90;;;;;;5046083;28;20017;-41
2022/11/12 00:22:32;;;;;;;9.95;8.02;;;7.70;99.90;;;;;;5045730;28;20339;-38
2022/11/12 00:24:58;;;;;;;11.95;9.15;;;7.70;99.90;;;;;;5046574;28;20643;-40
2022/11/12 00:27:23;;;;;;;14.10;9.13;;;7.70;99.90;;;;;;5045670;28;20032;-40
2022/11/12 00:29:49;;;;;;;11.73;9.13;;;7.60;99.90;;;;;;5045691;28;20052;-40
2022/11/12 00:32:15;;;;;;;13.45;8.63;;;7.60;99.90;;;;;;5046006;28;20457;-40
2022/11/12 00:34:40;;;;;;;11.43;8.85;;;7.60;99.90;;;;;;5046720;28;20033;-39
2022/11/12 00:37:06;;;;;;;12.90;9.52;;;7.60;99.90;;;;;;5044988;28;20025;-37
2022/11/12 00:39:32;;;;;;;14.23;9.63;;;7.60;99.90;;;;;;5045713;28;20436;-39
2022/11/12 00:41:57;;;;;;;15.68;10.07;;;7.50;99.90;;;;;;5045186;28;20027;-39
2022/11/12 00:44:23;;;;;;;15.70;9.52;;;7.50;99.90;;;;;;5045925;28;20029;-38
2022/11/12 00:46:48;;;;;;;15.02;10.25;;;7.50;99.90;;;;;;5046365;28;20085;-39
2022/11/12 00:49:14;;;;;;;13.70;9.73;;;7.50;99.90;;;;;;5044937;28;20156;-40
2022/11/12 00:51:40;;;;;;;15.32;10.15;;;7.50;99.90;;;;;;5045590;28;20094;-41
2022/11/12 00:54:06;;;;;;;14.95;10.68;;;7.50;99.90;;;;;;5045930;28;20033;-40
2022/11/12 00:56:32;;;;;;;16.38;10.73;;;7.50;99.90;;;;;;5044641;28;20033;-40
2022/11/12 00:58:58;;;;;;;13.50;10.18;;;7.40;99.90;;;;;;5045875;28;20028;-40
2022/11/12 01:01:23;;;;;;;14.50;10.30;;;7.50;99.90;;;;;;5045948;28;20025;-40
2022/11/12 01:03:49;;;;;;;13.98;9.50;;;7.50;99.90;;;;;;5044341;28;20102;-40
2022/11/12 01:06:18;;;;;;;14.23;9.45;;;7.40;99.90;;;;;;5045772;28;20025;-39
2022/11/12 01:08:47;;;;;;;12.90;9.85;;;7.40;99.90;;;;;;5045217;28;20056;-39
2022/11/12 01:11:19;;;;;;;11.85;9.10;;;7.40;99.90;;;;;;5043794;28;20380;-40
2022/11/12 01:13:47;;;;;;;12.23;9.20;;;7.40;99.90;;;;;;5045103;28;20345;-38
2022/11/12 01:16:19;;;;;;;11.95;9.15;;;7.30;99.90;;;;;;5044674;28;20457;-38
2022/11/12 01:18:45;;;;;;;11.20;7.93;;;7.30;99.90;;;;;;5044365;28;20166;-40
2022/11/12 01:21:11;;;;;;;13.40;8.75;;;7.30;99.90;;;;;;5044467;28;20785;-40
2022/11/12 01:23:39;;;;;;;9.77;7.88;;;7.30;99.90;;;;;;5044798;28;20025;-41
2022/11/12 01:26:06;;;;;;;10.75;7.72;;;7.20;99.90;;;;;;5043752;28;20029;-41
2022/11/12 01:28:32;;;;;;;11.43;8.57;;;7.20;99.90;;;;;;5044496;28;20025;-41
2022/11/12 01:30:57;;;;;;;11.27;8.40;;;7.20;99.90;;;;;;5045058;28;20122;-41
2022/11/12 01:33:23;;;;;;;12.27;8.63;;;7.20;99.90;;;;;;5043691;28;20021;-41
2022/11/12 01:35:48;;;;;;;11.77;8.82;;;7.10;99.90;;;;;;5045616;28;20765;-40
2022/11/12 01:38:14;;;;;;;11.57;8.43;;;7.20;99.90;;;;;;5043528;28;20051;-40
2022/11/12 01:40:40;;;;;;;10.52;8.00;;;7.10;99.90;;;;;;5044425;28;20031;-40
2022/11/12 01:43:12;;;;;;;10.88;8.55;;;7.10;99.90;;;;;;5045274;28;20032;-40
2022/11/12 01:45:45;;;;;;;10.98;8.02;;;7.10;99.90;;;;;;5033214;28;20021;-38
2022/11/12 01:48:26;;;;;;;12.15;8.32;;;7.10;99.90;;;;;;5043945;28;20319;-39
2022/11/12 01:50:53;;;;;;;10.52;8.75;;;7.10;99.90;;;;;;5034155;28;20036;-40
2022/11/12 01:53:26;;;;;;;12.43;9.13;;;7.10;99.90;;;;;;5043826;28;20495;-40
2022/11/12 01:55:52;;;;;;;11.52;8.65;;;7.10;99.90;;;;;;5044771;28;20021;-41
2022/11/12 01:58:24;;;;;;;10.80;8.93;;;7.00;99.90;;;;;;5044777;28;20029;-41
2022/11/12 02:00:50;;;;;;;10.38;8.38;;;7.00;99.90;;;;;;5043634;28;20040;-40
2022/11/12 02:03:22;;;;;;;11.38;9.13;;;7.10;99.90;;;;;;5044181;28;20037;-40
2022/11/12 02:05:53;;;;;;;9.65;8.45;;;7.10;99.90;;;;;;5043418;28;20112;-40
2022/11/12 02:08:20;;;;;;;12.65;9.63;;;7.00;99.90;;;;;;5043969;28;20021;-39
2022/11/12 02:10:46;;;;;;;11.23;9.25;;;7.00;99.90;;;;;;5043921;28;20024;-38
2022/11/12 02:15:57;;;;;;;10.85;8.40;;;7.00;99.90;;;;;;5043870;28;20039;-40
2022/11/12 02:18:22;;;;;;;11.02;8.50;;;7.00;99.90;;;;;;5043626;28;20519;-41
2022/11/12 02:20:57;;;;;;;11.20;8.60;;;7.00;99.90;;;;;;5043751;28;20041;-40
2022/11/12 02:23:22;;;;;;;10.52;9.15;;;7.00;99.90;;;;;;5044121;28;20028;-40
2022/11/12 02:25:48;;;;;;;11.50;8.95;;;7.00;99.90;;;;;;5043460;28;20025;-40
2022/11/12 02:28:15;;;;;;;11.90;8.88;;;7.00;99.90;;;;;;5042763;28;20036;-40
2022/11/12 02:30:47;;;;;;;11.50;9.15;;;7.00;99.90;;;;;;5043364;28;20083;-41
2022/11/12 02:33:13;;;;;;;12.55;9.05;;;6.90;99.90;;;;;;5042737;28;20023;-41
2022/11/12 02:35:39;;;;;;;11.75;9.38;;;6.90;99.90;;;;;;5042356;28;20112;-41
2022/11/12 02:38:06;;;;;;;15.73;9.55;;;6.90;99.90;;;;;;5043742;28;20024;-40
2022/11/12 02:40:31;;;;;;;11.85;9.00;;;6.90;99.90;;;;;;5043293;28;20094;-39
2022/11/12 02:42:57;;;;;;;11.20;8.57;;;6.90;99.90;;;;;;5042830;28;20508;-40
2022/11/12 02:45:23;;;;;;;11.63;9.10;;;6.80;99.90;;;;;;5043175;28;20679;-41
2022/11/12 02:47:49;;;;;;;11.13;9.18;;;6.90;99.90;;;;;;5044405;28;20017;-38
2022/11/12 02:50:15;;;;;;;11.23;8.90;;;6.80;99.90;;;;;;5042502;28;20029;-37
2022/11/12 02:52:40;;;;;;;12.75;9.38;;;6.80;99.90;;;;;;5043840;28;20666;-39
2022/11/12 02:55:08;;;;;;;10.48;8.35;;;6.80;99.90;;;;;;5043075;28;20033;-40
2022/11/12 02:57:38;;;;;;;11.15;9.68;;;6.80;99.90;;;;;;5043080;28;20020;-40
2022/11/12 03:00:05;;;;;;;11.88;9.13;;;6.80;99.90;;;;;;5044064;28;20017;-40
2022/11/12 03:02:31;;;;;;;11.18;8.57;;;6.70;99.90;;;;;;5042526;28;20032;-39
2022/11/12 03:04:56;;;;;;;11.85;9.18;;;6.70;99.90;;;;;;5042213;28;20032;-40
2022/11/12 03:07:22;;;;;;;15.02;9.43;;;6.70;99.90;;;;;;5040928;28;20393;-39
2022/11/12 03:09:47;;;;;;;12.00;9.57;;;6.70;99.90;;;;;;5042951;28;20049;-41
2022/11/12 03:12:13;;;;;;;10.90;9.35;;;6.70;99.90;;;;;;5042803;28;20029;-38
2022/11/12 03:14:41;;;;;;;11.15;9.32;;;6.70;99.90;;;;;;5043869;28;20043;-40
2022/11/12 03:17:07;;;;;;;11.52;8.77;;;6.70;99.90;;;;;;5042411;28;20029;-39
2022/11/12 03:19:33;;;;;;;14.13;9.40;;;6.70;99.90;;;;;;5043166;28;20037;-40
2022/11/12 03:21:58;;;;;;;11.38;8.48;;;6.70;99.90;;;;;;5043005;28;20056;-41
2022/11/12 03:24:24;;;;;;;10.73;8.95;;;6.70;99.90;;;;;;5042682;28;20025;-38
2022/11/12 03:26:49;;;;;;;11.52;8.68;;;6.60;99.90;;;;;;5043206;28;20052;-40
2022/11/12 03:29:15;;;;;;;11.30;8.82;;;6.60;99.90;;;;;;5042747;28;20387;-36
2022/11/12 03:31:41;;;;;;;12.63;9.13;;;6.60;99.90;;;;;;5042305;28;20040;-41
2022/11/12 03:34:06;;;;;;;10.55;7.97;;;6.60;99.90;;;;;;5043208;28;20029;-40
2022/11/12 03:36:32;;;;;;;10.68;8.30;;;6.60;99.90;;;;;;5043206;28;20029;-40
2022/11/12 03:38:57;;;;;;;9.48;8.48;;;6.60;99.90;;;;;;5042935;28;20028;-40
2022/11/12 03:41:23;;;;;;;12.45;8.43;;;6.60;99.90;;;;;;5043381;28;20029;-40
2022/11/12 03:43:49;;;;;;;12.30;8.85;;;6.70;99.90;;;;;;5042705;28;20040;-39
2022/11/12 03:46:14;;;;;;;11.82;8.52;;;6.60;99.90;;;;;;5045081;28;20033;-40
2022/11/12 03:48:40;;;;;;;12.10;8.65;;;6.60;99.90;;;;;;5047283;28;20033;-39
2022/11/12 03:51:05;;;;;;;10.20;8.55;;;6.70;99.90;;;;;;5046940;28;20029;-39
2022/11/12 03:53:31;;;;;;;10.52;8.63;;;6.70;99.90;;;;;;5046493;28;20465;-40
2022/11/12 03:55:56;;;;;;;10.68;8.50;;;6.70;99.90;;;;;;5047513;28;20033;-40
2022/11/12 03:58:24;;;;;;;10.50;8.18;;;6.70;99.90;;;;;;5047225;28;20266;-39
2022/11/12 04:00:50;;;;;;;11.63;8.57;;;6.70;99.90;;;;;;5046087;28;20037;-40
2022/11/12 04:03:18;;;;;;;12.07;8.25;;;6.70;99.90;;;;;;5046630;28;20025;-40
2022/11/12 04:08:37;;;;;;;11.02;8.52;;;6.70;99.90;;;;;;5046533;28;20122;-40
2022/11/12 04:11:13;;;;;;;10.82;8.35;;;6.70;99.90;;;;;;5046693;28;20040;-40
2022/11/12 04:13:40;;;;;;;11.18;8.32;;;6.60;99.90;;;;;;5045776;28;20762;-39
2022/11/12 04:21:53;;;;;;;11.48;8.88;;;6.60;99.90;;;;;;5046487;28;20531;-40
2022/11/12 04:27:34;;;;;;;12.45;8.73;;;6.60;99.90;;;;;;5045574;28;20044;-40
2022/11/12 04:30:15;;;;;;;10.38;8.20;;;6.60;99.90;;;;;;5045798;28;20057;-41
2022/11/12 04:32:54;;;;;;;12.43;9.05;;;6.60;99.90;;;;;;5026246;28;20026;-38
2022/11/12 04:35:21;;;;;;;11.65;8.95;;;6.50;99.90;;;;;;5042569;28;20029;-42
2022/11/12 04:37:47;;;;;;;11.48;9.23;;;6.50;99.90;;;;;;5046825;28;20032;-38
2022/11/12 04:45:48;;;;;;;11.30;9.02;;;6.40;99.90;;;;;;5043775;28;20070;-39
2022/11/12 04:48:14;;;;;;;10.23;8.90;;;6.40;99.90;;;;;;5044893;28;20084;-40
2022/11/12 04:50:41;;;;;;;12.85;9.85;;;6.40;99.90;;;;;;5046392;28;20075;-41
2022/11/12 04:53:07;;;;;;;11.68;8.30;;;6.40;99.90;;;;;;5045744;28;20021;-38
2022/11/12 04:55:32;;;;;;;12.10;9.60;;;6.40;99.90;;;;;;5044401;28;20507;-39
2022/11/12 04:57:58;;;;;;;11.25;8.88;;;6.30;99.90;;;;;;5044548;28;20032;-38
2022/11/12 05:00:27;;;;;;;14.50;9.25;;;6.30;99.90;;;;;;5045413;28;20098;-40
2022/11/12 05:02:52;;;;;;;12.35;8.80;;;6.30;99.90;;;;;;5045267;28;20028;-41
2022/11/12 05:05:18;;;;;;;11.10;8.77;;;6.40;99.90;;;;;;5045072;28;20032;-39
2022/11/12 05:07:43;;;;;;;11.52;9.05;;;6.40;99.90;;;;;;5045215;28;20035;-39
2022/11/12 05:10:09;;;;;;;10.35;8.55;;;6.40;99.90;;;;;;5044484;28;20036;-39
2022/11/12 05:12:38;;;;;;;9.73;8.23;;;6.30;99.90;;;;;;5045292;28;20060;-39
2022/11/12 05:15:05;;;;;;;11.00;8.65;;;6.30;99.90;;;;;;5045315;28;20137;-41
2022/11/12 05:17:30;;;;;;;10.93;8.73;;;6.30;99.90;;;;;;5044448;28;20104;-41
2022/11/12 05:19:56;;;;;;;11.00;8.68;;;6.30;99.90;;;;;;5044213;28;20490;-40
2022/11/12 05:22:21;;;;;;;11.05;8.50;;;6.30;99.90;;;;;;5045000;28;20027;-40
2022/11/12 05:24:47;;;;;;;10.80;8.68;;;6.30;99.90;;;;;;5044715;28;20029;-40
2022/11/12 05:27:18;;;;;;;10.63;8.15;;;6.30;99.90;;;;;;5044105;28;20029;-40
2022/11/12 05:29:44;;;;;;;9.65;7.82;;;6.30;99.90;;;;;;5045130;28;20092;-41
2022/11/12 05:32:11;;;;;;;10.38;8.23;;;6.30;99.90;;;;;;5043824;28;20527;-40
2022/11/12 05:34:37;;;;;;;10.27;7.50;;;6.30;99.90;;;;;;5045088;28;20040;-40
2022/11/12 05:37:04;;;;;;;8.32;7.43;;;6.30;99.90;;;;;;5044002;28;20025;-41
2022/11/12 05:39:30;;;;;;;10.18;7.53;;;6.30;99.90;;;;;;5043913;28;20078;-41
2022/11/12 05:42:02;;;;;;;9.73;7.15;;;6.30;99.90;;;;;;5044651;28;20029;-41
2022/11/12 05:44:27;;;;;;;10.35;7.57;;;6.30;99.90;;;;;;5044137;28;20983;-41
2022/11/12 05:46:53;;;;;;;9.73;7.07;;;6.30;99.90;;;;;;5045257;28;20539;-41
2022/11/12 05:49:18;;;;;;;8.35;6.88;;;6.30;99.90;;;;;;5044572;28;20033;-38
2022/11/12 05:51:44;;;;;;;9.30;7.00;;;6.30;99.90;;;;;;5043986;28;20033;-41
2022/11/12 05:54:10;;;;;;;10.85;7.65;;;6.30;99.90;;;;;;5044969;28;20020;-41
2022/11/12 05:56:36;;;;;;;10.07;7.85;;;6.30;99.90;;;;;;5045017;28;20025;-39
2022/11/12 05:59:07;;;;;;;10.63;7.82;;;6.30;99.90;;;;;;5043665;28;20115;-40
2022/11/12 06:01:37;;;;;;;11.15;7.20;;;6.30;99.90;;;;;;5045090;28;20017;-39
2022/11/12 06:04:03;;;;;;;9.70;7.47;;;6.30;99.90;;;;;;5044446;28;20025;-39
2022/11/12 06:06:28;;;;;;;10.10;7.40;;;6.30;99.90;;;;;;5043718;28;20087;-37
2022/11/12 06:08:54;;;;;;;10.45;7.63;;;6.30;99.90;;;;;;5042975;28;20663;-40
2022/11/12 06:11:19;;;;;;;9.27;7.47;;;6.30;99.90;;;;;;5044373;28;20029;-41
2022/11/12 06:13:45;;;;;;;10.77;7.25;;;6.20;99.90;;;;;;5043807;28;20017;-40
2022/11/12 06:16:10;;;;;;;10.07;7.68;;;6.20;99.90;;;;;;5044825;28;20484;-39
2022/11/12 06:18:36;;;;;;;10.38;7.15;;;6.20;99.90;;;;;;5044167;28;20025;-39
2022/11/12 06:21:23;;;;;;;8.50;7.05;;;6.20;99.90;;;;;;5043409;28;20020;-39
2022/11/12 06:23:54;;;;;;;10.35;7.60;;;6.10;99.90;;;;;;5044710;28;20039;-39
2022/11/12 06:26:21;;;;;;;8.60;7.55;;;6.20;99.90;;;;;;5024193;28;20728;-39
2022/11/12 06:28:47;;;;;;;8.65;7.28;;;6.10;99.90;;;;;;5038162;28;20016;-40
2022/11/12 06:31:16;;;;;;;9.30;7.80;;;6.10;99.90;;;;;;5044157;28;20065;-38
2022/11/12 06:33:42;;;;;;;9.55;7.63;;;6.10;99.90;;;;;;5043024;28;20021;-41
2022/11/12 06:36:13;;;;;;;8.40;7.38;;;6.10;99.90;;;;;;5043753;28;20032;-39
2022/11/12 06:38:40;;;;;;;9.00;8.10;;;6.10;99.90;;;;;;5044349;28;20111;-40
2022/11/12 06:41:07;;;;;;;10.10;8.10;;;6.10;99.90;;;;;;5043218;28;20072;-41
2022/11/12 06:43:33;;;;;;;10.77;7.95;;;6.10;99.90;;;;;;5043878;28;20024;-41
2022/11/12 06:46:07;;;;;;;10.77;7.50;;;6.10;99.90;;;;;;5043778;28;20033;-40
2022/11/12 06:48:33;;;;;;;8.43;7.13;;;6.10;99.90;;;;;;5043786;28;20118;-40
2022/11/12 06:51:06;;;;;;;9.05;7.38;;;6.10;99.90;;;;;;5043746;28;20119;-39
2022/11/12 06:53:31;;;;;;;10.45;8.05;;;6.10;99.90;;;;;;5043792;28;20028;-41
2022/11/12 06:56:02;;;;;;;11.13;7.82;;;6.10;99.90;;;;;;5043105;28;20021;-40
2022/11/12 06:58:27;;;;;;;10.98;8.80;;;6.10;99.90;;;;;;5043897;28;20423;-41
2022/11/12 07:00:53;;;;;;;10.98;8.70;;;6.10;99.90;;;;;;5043237;28;20702;-39
2022/11/12 07:03:18;;;;;;;10.23;8.20;;;6.10;99.90;;;;;;5042625;28;20059;-40
2022/11/12 07:05:44;;;;;;;11.45;9.65;;;6.10;99.90;;;;;;5043916;28;20110;-39
2022/11/12 07:08:09;;;;;;;12.05;8.45;;;6.10;99.90;;;;;;5043083;28;20152;-41
2022/11/12 07:10:58;;;;;;;11.95;9.02;;;6.10;99.90;;;;;;5042969;28;20032;-40
2022/11/12 07:13:24;;;;;;;10.30;7.80;;;6.10;99.90;;;;;;5043822;28;20031;-41
2022/11/12 07:15:50;;;;;;;9.13;7.80;;;6.10;99.90;;;;;;5042696;28;20406;-38
2022/11/12 07:18:15;;;;;;;8.95;7.32;;;6.10;99.90;;;;;;5043481;28;20024;-39
2022/11/12 07:20:41;;;;;;;9.43;7.60;;;6.10;99.90;;;;;;5042428;28;20114;-40
2022/11/12 07:23:06;;;;;;;9.43;7.75;;;6.10;99.90;;;;;;5041719;28;20025;-41
2022/11/12 07:25:34;;;;;;;9.65;8.15;;;6.00;99.90;;;;;;5042932;28;20803;-40
2022/11/12 07:28:00;;;;;;;9.98;8.48;;;6.10;99.90;;;;;;5043181;28;20048;-38
2022/11/12 07:30:29;;;;;;;10.18;8.88;;;6.10;99.90;;;;;;5040531;28;20057;-37
2022/11/12 07:32:57;;;;;;;10.35;9.02;;;6.10;99.90;;;;;;5041702;28;20677;-37
2022/11/12 07:35:22;;;;;;;11.32;8.93;;;6.10;99.90;;;;;;5041972;28;20480;-36
2022/11/12 07:37:48;;;;;;;10.57;8.55;;;6.20;99.90;;;;;;5042012;28;20025;-38
2022/11/12 07:40:14;;;;;;;10.93;8.73;;;6.20;99.90;;;;;;5042172;28;20021;-40
2022/11/12 07:42:40;;;;;;;10.02;8.68;;;6.20;99.90;;;;;;5042904;28;20029;-39
2022/11/12 07:45:06;;;;;;;12.00;9.20;;;6.30;99.90;;;;;;5041735;28;20025;-40
2022/11/12 07:47:31;;;;;;;10.32;8.88;;;6.30;99.90;;;;;;5041625;28;20021;-36
2022/11/12 07:49:57;;;;;;;10.43;8.57;;;6.30;99.90;;;;;;5041834;28;20068;-40
2022/11/12 07:52:23;;;;;;;11.30;8.48;;;6.30;99.90;;;;;;5040924;28;20048;-38
2022/11/12 07:54:48;;;;;;;10.32;7.90;;;6.40;99.90;;;;;;5041872;28;20669;-40
2022/11/12 07:57:14;;;;;;;11.45;8.38;;;6.30;99.90;;;;;;5041767;28;20029;-40
2022/11/12 07:59:39;;;;;;;9.75;8.27;;;6.30;99.90;;;;;;5041939;28;20037;-41
2022/11/12 08:02:08;;;;;;;11.02;8.45;;;6.40;99.90;;;;;;5041704;28;20040;-39
2022/11/12 08:04:36;;;;;;;11.13;7.78;;;6.40;99.90;;;;;;5042683;28;20125;-39
2022/11/12 08:07:02;;;;;;;9.07;7.45;;;6.40;99.90;;;;;;5041151;28;20033;-41
2022/11/12 08:09:27;;;;;;;8.73;7.30;;;6.50;99.90;;;;;;5042195;28;20400;-39
2022/11/12 08:11:53;;;;;;;8.73;7.18;;;6.50;99.90;;;;;;5042239;28;20072;-40
2022/11/12 08:14:19;;;;;;;7.80;6.88;;;6.50;99.90;;;;;;5042086;28;20112;-39
2022/11/12 08:16:48;;;;;;;8.45;6.88;;;6.50;99.90;;;;;;5042313;28;20021;-40
2022/11/12 08:19:13;;;;;;;7.60;6.80;;;6.60;99.90;;;;;;5041821;28;20021;-39
2022/11/12 08:21:39;;;;;;;8.30;6.05;;;6.60;99.90;;;;;;5043207;28;20079;-39
2022/11/12 08:24:05;;;;;;;6.85;6.00;;;6.70;99.90;;;;;;5042125;28;20040;-37
2022/11/12 08:26:30;;;;;;;6.53;5.88;;;6.70;99.90;;;;;;5041871;28;20032;-37
2022/11/12 08:28:56;;;;;;;6.93;5.55;;;6.70;99.90;;;;;;5042698;28;21889;-40
2022/11/12 08:31:22;;;;;;;8.05;5.75;;;6.80;99.90;;;;;;5039738;28;20061;-40
2022/11/12 08:33:48;;;;;;;8.77;6.40;;;6.80;99.90;;;;;;5044242;28;20496;-40
2022/11/12 08:36:15;;;;;;;7.55;5.88;;;6.80;99.90;;;;;;5044909;28;20033;-39
2022/11/12 08:38:42;;;;;;;7.10;5.35;;;6.90;99.90;;;;;;5045249;28;20503;-40
2022/11/12 08:41:10;;;;;;;9.35;5.93;;;6.90;99.90;;;;;;5044633;28;20131;-40
2022/11/12 08:43:36;;;;;;;7.80;5.60;;;7.00;99.90;;;;;;5045708;28;20837;-38
2022/11/12 08:46:03;;;;;;;7.10;5.80;;;7.00;99.90;;;;;;5045332;28;20063;-39
2022/11/12 08:48:29;;;;;;;6.25;5.43;;;7.10;99.90;;;;;;5044302;28;20044;-40
2022/11/12 08:50:55;;;;;;;7.38;5.45;;;7.10;99.90;;;;;;5045417;28;20524;-40
2022/11/12 08:53:23;;;;;;;7.60;5.50;;;7.10;99.90;;;;;;5044395;28;20108;-41
2022/11/12 08:55:53;;;;;;;8.48;5.57;;;7.20;99.90;;;;;;5044640;28;20024;-41
2022/11/12 08:58:18;;;;;;;7.43;5.78;;;7.20;99.90;;;;;;5045946;28;20103;-39
2022/11/12 09:00:45;;;;;;;7.15;6.13;;;7.20;99.90;;;;;;5045665;28;20620;-41
2022/11/12 09:03:14;;;;;;;9.43;6.30;;;7.30;99.90;;;;;;5044263;28;20116;-40
2022/11/12 09:05:40;;;;;;;7.82;6.20;;;7.30;99.90;;;;;;5045860;28;20074;-41
2022/11/12 09:08:07;;;;;;;7.65;6.13;;;7.40;99.90;;;;;;5045289;28;20021;-37
2022/11/12 09:10:36;;;;;;;5.95;5.25;;;7.50;99.90;;;;;;5045363;28;20044;-40
2022/11/12 09:13:02;;;;;;;6.47;5.13;;;7.50;99.90;;;;;;5045009;28;20028;-38
2022/11/12 09:15:31;;;;;;;10.57;5.68;;;7.60;99.90;;;;;;5044591;28;20063;-35
2022/11/12 09:18:02;;;;;;;7.03;5.70;;;7.60;99.90;;;;;;5045015;28;20647;-36
2022/11/12 09:20:28;;;;;;;6.90;6.03;;;7.70;99.90;;;;;;5045029;28;20025;-42
2022/11/12 09:23:15;;;;;;;6.95;6.25;;;7.70;99.90;;;;;;5044642;28;20450;-41
2022/11/12 09:25:41;;;;;;;7.72;5.93;;;7.80;99.90;;;;;;5043060;28;20475;-39
2022/11/12 09:28:15;;;;;;;9.35;6.18;;;7.90;99.90;;;;;;5045705;28;20035;-34
2022/11/12 09:30:50;;;;;;;7.38;6.30;;;7.90;99.90;;;;;;5044495;28;20051;-39
2022/11/12 09:33:17;;;;;;;8.65;6.15;;;8.00;99.90;;;;;;5045357;28;20431;-40
2022/11/12 09:35:44;;;;;;;7.18;5.43;;;8.00;99.90;;;;;;5044995;28;20067;-40
2022/11/12 09:38:10;;;;;;;9.13;6.40;;;8.00;99.90;;;;;;5044428;28;20029;-39
2022/11/12 09:40:47;;;;;;;7.05;5.28;;;8.10;99.90;;;;;;5044949;28;20029;-40
2022/11/12 09:43:19;;;;;;;9.35;5.70;;;8.10;99.90;;;;;;5044343;28;20029;-40
2022/11/12 09:45:46;;;;;;;6.68;6.00;;;8.20;99.90;;;;;;5044261;28;20136;-40
2022/11/12 09:48:16;;;;;;;7.53;6.00;;;8.30;99.90;;;;;;5044249;28;20033;-38
2022/11/12 09:50:55;;;;;;;6.53;5.57;;;8.30;99.90;;;;;;5043900;28;20052;-39
2022/11/12 09:53:41;;;;;;;7.38;5.57;;;8.30;99.90;;;;;;5024490;28;20033;-40
2022/11/12 09:56:11;;;;;;;7.32;6.00;;;8.40;99.90;;;;;;5042271;28;20041;-37
2022/11/12 09:58:36;;;;;;;7.32;5.95;;;8.40;99.90;;;;;;5044166;28;20742;-39
2022/11/12 10:01:22;;;;;;;7.30;5.93;;;8.40;99.90;;;;;;5044373;28;20024;-41
2022/11/12 10:03:53;;;;;;;9.20;6.47;;;8.50;99.90;;;;;;5024951;28;20052;-40
2022/11/12 10:06:21;;;;;;;7.55;6.55;;;8.50;99.90;;;;;;5040608;28;20671;-41
2022/11/12 10:09:11;;;;;;;8.18;6.60;;;8.60;99.90;;;;;;5044795;28;20032;-41
2022/11/12 10:18:23;;;;;;;7.97;5.38;;;8.80;99.90;;;;;;5042569;28;20583;-38
2022/11/12 10:21:08;;;;;;;6.50;5.63;;;8.80;99.90;;;;;;5040821;28;20059;-39
2022/11/12 10:23:41;;;;;;;7.30;5.40;;;8.90;99.90;;;;;;5039519;28;20032;-39
2022/11/12 10:26:16;;;;;;;7.30;5.75;;;8.90;99.90;;;;;;5043295;28;20026;-38
2022/11/12 10:29:00;;;;;;;6.38;5.47;;;9.00;99.90;;;;;;5041112;28;20033;-39
2022/11/12 10:31:25;;;;;;;7.53;6.13;;;9.00;99.90;;;;;;5040592;28;20083;-36
2022/11/12 10:34:08;;;;;;;6.82;5.35;;;9.10;99.90;;;;;;5042540;28;20525;-39
2022/11/12 10:36:37;;;;;;;6.47;5.80;;;9.20;99.90;;;;;;5042844;28;20112;-40
2022/11/12 10:39:03;;;;;;;7.97;5.45;;;9.20;99.90;;;;;;5040847;28;20028;-39
2022/11/12 10:41:31;;;;;;;6.55;5.78;;;9.30;99.90;;;;;;5042224;28;20024;-40
2022/11/12 10:44:00;;;;;;;6.88;5.53;;;9.30;99.90;;;;;;5042979;28;20810;-41
2022/11/12 10:46:29;;;;;;;8.07;5.88;;;9.40;99.90;;;;;;5043655;28;20075;-40
2022/11/12 10:49:22;;;;;;;6.03;5.35;;;9.40;99.90;;;;;;5043052;28;20033;-40
2022/11/12 10:51:57;;;;;;;6.10;5.20;;;9.50;99.90;;;;;;5041577;28;20033;-38
2022/11/12 10:54:36;;;;;;;6.50;5.90;;;9.50;99.90;;;;;;5034513;28;20132;-39
2022/11/12 10:57:24;;;;;;;6.30;5.35;;;9.60;99.90;;;;;;5040668;28;20782;-41
2022/11/12 11:00:11;;;;;;;7.18;5.57;;;9.60;99.90;;;;;;5042301;28;20019;-41
2022/11/12 11:02:49;;;;;;;6.68;6.00;;;9.60;99.90;;;;;;5042394;28;20907;-40
2022/11/12 11:05:35;;;;;;;6.07;5.47;;;9.70;99.90;;;;;;5043330;28;20017;-41
2022/11/12 11:08:01;;;;;;;8.77;6.35;;;9.70;99.90;;;;;;5039826;28;20049;-41
2022/11/12 11:10:33;;;;;;;6.50;5.90;;;9.80;99.90;;;;;;5042929;28;20109;-41
2022/11/12 11:13:07;;;;;;;6.93;5.70;;;9.80;99.90;;;;;;5039875;28;20784;-40
2022/11/12 11:15:33;;;;;;;6.25;5.63;;;9.90;99.90;;;;;;5042423;28;20087;-39
2022/11/12 11:17:59;;;;;;;6.10;5.10;;;9.90;99.90;;;;;;5040330;28;20436;-41
2022/11/12 11:20:32;;;;;;;6.43;5.32;;;10.00;99.90;;;;;;5043060;28;20021;-40
2022/11/12 11:23:20;;;;;;;6.45;5.43;;;10.00;99.90;;;;;;5041989;28;20041;-39
2022/11/12 11:25:49;;;;;;;6.72;5.53;;;10.10;99.90;;;;;;5041474;28;20036;-40
2022/11/12 11:28:47;;;;;;;6.55;5.22;;;10.10;99.90;;;;;;5043414;28;20079;-39
2022/11/12 11:31:43;;;;;;;5.93;5.32;;;10.20;99.90;;;;;;5033862;28;20051;-40
2022/11/12 11:34:32;;;;;;;6.45;5.63;;;10.30;99.90;;;;;;5039498;28;20053;-40
2022/11/12 11:37:25;;;;;;;6.38;5.50;;;10.30;99.90;;;;;;5023337;28;20061;-40
2022/11/12 11:40:11;;;;;;;5.53;4.95;;;10.40;99.90;;;;;;5040286;28;20583;-38
2022/11/12 11:43:06;;;;;;;7.07;5.50;;;10.40;99.90;;;;;;5043717;28;20110;-40
2022/11/12 11:45:50;;;;;;;6.07;5.20;;;10.40;99.90;;;;;;5041561;28;20151;-38
2022/11/12 11:49:00;;;;;;;5.93;5.40;;;10.50;99.90;;;;;;5042198;28;20590;-40
2022/11/12 11:51:50;;;;;;;5.60;4.95;;;10.60;99.90;;;;;;5016423;28;20075;-40
2022/11/12 11:54:40;;;;;;;6.00;5.38;;;10.70;99.90;;;;;;5041810;28;20041;-41
2022/11/12 11:57:20;;;;;;;6.60;4.72;;;10.70;99.90;;;;;;5040234;28;20538;-41
2022/11/12 12:00:00;;;;;;;6.28;5.68;;;10.70;99.90;;;;;;5043391;28;20033;-41
2022/11/12 12:02:44;;;;;;;7.00;5.60;;;10.70;99.90;;;;;;5042887;28;20036;-41
2022/11/12 12:06:11;;;;;;;6.28;5.63;;;10.80;99.90;;;;;;5042136;28;20051;-40
2022/11/12 12:08:55;;;;;;;6.03;5.43;;;10.80;99.90;;;;;;5025614;28;20033;-41
2022/11/12 12:11:50;;;;;;;9.40;5.78;;;10.90;99.90;;;;;;5041685;28;20132;-41
2022/11/12 12:14:47;;;;;;;6.43;5.78;;;10.90;99.90;;;;;;5045491;28;20324;-40
2022/11/12 12:17:27;;;;;;;5.90;5.30;;;11.00;99.90;;;;;;5039322;28;20481;-37
2022/11/12 12:20:20;;;;;;;6.50;5.30;;;11.00;99.90;;;;;;5045877;28;20029;-40
2022/11/12 12:22:52;;;;;;;5.68;5.07;;;11.10;99.90;;;;;;5047360;28;20047;-40
2022/11/12 12:25:25;;;;;;;6.63;5.53;;;11.10;99.90;;;;;;5045451;28;20028;-42
2022/11/12 12:28:06;;;;;;;6.45;5.43;;;11.20;99.90;;;;;;5041700;28;20033;-40
2022/11/12 12:30:38;;;;;;;5.90;5.40;;;11.20;99.90;;;;;;5046110;28;20493;-41
2022/11/12 12:33:43;;;;;;;6.43;5.30;;;11.20;99.90;;;;;;5045400;28;20147;-40
2022/11/12 12:36:32;;;;;;;7.20;5.55;;;11.30;99.90;;;;;;5036745;28;20057;-39
2022/11/12 12:39:03;;;;;;;7.22;5.60;;;11.30;99.90;;;;;;5026798;28;20416;-37
2022/11/12 12:41:46;;;;;;;6.50;5.32;;;11.40;99.90;;;;;;5041622;28;20033;-38
2022/11/12 12:44:12;;;;;;;6.68;5.22;;;11.40;99.90;;;;;;5046003;28;20425;-36
2022/11/12 12:46:58;;;;;;;6.00;5.43;;;11.40;99.90;;;;;;5045604;28;20531;-40
2022/11/12 12:49:35;;;;;;;5.47;4.90;;;11.50;99.90;;;;;;5040573;28;20036;-40
2022/11/12 12:52:04;;;;;;;6.15;4.95;;;11.50;99.90;;;;;;5045029;28;20060;-38
2022/11/12 12:54:36;;;;;;;5.85;5.25;;;11.60;99.90;;;;;;5045372;28;20033;-40
2022/11/12 12:57:32;;;;;;;7.32;5.25;;;11.60;99.90;;;;;;5045900;28;20033;-40
2022/11/12 13:00:35;;;;;;;6.38;5.65;;;11.70;99.90;;;;;;5044367;28;20071;-39
2022/11/12 13:03:00;;;;;;;5.85;5.30;;;11.70;99.90;;;;;;5042732;28;20468;-40
2022/11/12 13:05:34;;;;;;;6.05;5.45;;;11.80;99.90;;;;;;5046014;28;20128;-40
2022/11/12 13:08:19;;;;;;;5.82;5.22;;;11.80;99.90;;;;;;5041882;28;20940;-40
2022/11/12 13:10:47;;;;;;;6.15;5.45;;;11.90;99.90;;;;;;5045869;28;20041;-41
2022/11/12 13:13:37;;;;;;;7.95;6.05;;;11.90;99.90;;;;;;5045483;28;20025;-41
2022/11/12 13:16:03;;;;;;;6.38;5.72;;;11.90;99.90;;;;;;5044375;28;20770;-39
2022/11/12 13:18:41;;;;;;;7.13;6.38;;;12.00;99.90;;;;;;5044082;28;20021;-41
2022/11/12 13:21:14;;;;;;;7.93;5.88;;;12.10;99.90;;;;;;5044690;28;20495;-39
2022/11/12 13:24:07;;;;;;;7.90;6.30;;;12.10;99.90;;;;;;5044756;28;20029;-42
2022/11/12 13:26:47;;;;;;;7.53;5.75;;;12.20;99.90;;;;;;5045781;28;20739;-41
2022/11/12 13:29:23;;;;;;;6.10;5.50;;;12.20;99.90;;;;;;5033475;28;20590;-37
2022/11/12 13:31:49;;;;;;;6.22;5.60;;;12.20;99.90;;;;;;5044803;28;20068;-40
2022/11/12 13:34:22;;;;;;;8.30;6.00;;;12.30;99.90;;;;;;5045367;28;20914;-40